Indian Shores, Florida
Current Conditions -  °F | °C
As of 8:55 AM on Friday 31 Oct 2014 (Local Time) from KCLW Reporting Station
Clear Clear  
Wind Chill: 66°   Ceiling: Unl
Heat Index: 66°   Visibility: 10mi
Dew Point: 55°   Wind: 0mph
Humidity: 68%   Direction: NA
Pressure: 29.9"   Gusts: NA
Location:  27.8852°N, 82.845°W
Report Text: KCLW 311255Z AUTO 00000KT 10SM CLR 19/13 A2990 RMK AO2
Loading
Personal Weather Stations






























Interactive Weather Map
Tropical Storm Tracking
New forecast layout! Learn more

10-Day Weather Forecast

Advertisements
Track Severe Weather on mobile